Terminal Aerodrome Forecast
Issued by NWS

Current Version | Previous Version | Text Only | Print | Product List | Glossary On
Versions: 1 2 3 4 5 6 7 8 9 10 11 12 13 14 15 16 17 18 19
000
FTUS41 KBOX 231130
TAFBED
TAF
KBED 231130Z 2312/2412 00000KT 3SM BR SCT040
     FM231300 00000KT P6SM BKN150
     FM231700 14006KT P6SM BKN050
     FM231900 15006KT P6SM VCSH OVC035
     FM232100 16006KT 6SM -RA BR OVC015
     FM232300 17006KT 3SM -RA BR OVC008
     FM240300 20005KT 3SM BR VCSH OVC005
     FM240600 24007KT P6SM OVC008
     FM240900 25007KT P6SM BKN050=

USA.gov is the U.S. government's official web portal to all federal, state and local government web resources and services.